sensor_id;sensor_type;location;lat;lon;timestamp;pressure;altitude;pressure_sealevel;temperature;humidity
13068;BME280;6600;51.362;6.686;2023-04-27T00:00:37;101566.22;;;6.17;87.39
13068;BME280;6600;51.362;6.686;2023-04-27T00:03:03;101568.03;;;6.08;88.18
13068;BME280;6600;51.362;6.686;2023-04-27T00:05:33;101566.19;;;6.08;87.64
13068;BME280;6600;51.362;6.686;2023-04-27T00:07:59;101575.50;;;6.04;88.49
13068;BME280;6600;51.362;6.686;2023-04-27T00:10:24;101573.31;;;6.00;88.61
13068;BME280;6600;51.362;6.686;2023-04-27T00:12:49;101575.34;;;5.98;88.44
13068;BME280;6600;51.362;6.686;2023-04-27T00:15:15;101575.00;;;5.93;88.94
13068;BME280;6600;51.362;6.686;2023-04-27T00:17:40;101577.16;;;5.89;88.81
13068;BME280;6600;51.362;6.686;2023-04-27T00:20:07;101580.28;;;5.85;89.38
13068;BME280;6600;51.362;6.686;2023-04-27T00:22:36;101580.59;;;5.82;89.57
13068;BME280;6600;51.362;6.686;2023-04-27T00:25:01;101577.25;;;5.80;89.76
13068;BME280;6600;51.362;6.686;2023-04-27T00:27:27;101587.38;;;5.76;90.14
13068;BME280;6600;51.362;6.686;2023-04-27T00:29:53;101574.59;;;5.72;90.08
13068;BME280;6600;51.362;6.686;2023-04-27T00:32:18;101577.59;;;5.69;90.47
13068;BME280;6600;51.362;6.686;2023-04-27T00:34:43;101582.22;;;5.67;90.74
13068;BME280;6600;51.362;6.686;2023-04-27T00:37:09;101584.22;;;5.65;90.42
13068;BME280;6600;51.362;6.686;2023-04-27T00:39:34;101587.88;;;5.64;90.75
13068;BME280;6600;51.362;6.686;2023-04-27T00:42:00;101585.16;;;5.55;91.26
13068;BME280;6600;51.362;6.686;2023-04-27T00:44:26;101583.84;;;5.51;91.75
13068;BME280;6600;51.362;6.686;2023-04-27T00:46:52;101590.47;;;5.47;91.35
13068;BME280;6600;51.362;6.686;2023-04-27T00:49:22;101582.66;;;5.46;91.26
13068;BME280;6600;51.362;6.686;2023-04-27T00:51:48;101581.50;;;5.40;91.78
13068;BME280;6600;51.362;6.686;2023-04-27T00:56:42;101578.78;;;5.32;92.18
13068;BME280;6600;51.362;6.686;2023-04-27T00:59:07;101575.28;;;5.32;92.49
13068;BME280;6600;51.362;6.686;2023-04-27T01:01:33;101575.09;;;5.25;93.05
13068;BME280;6600;51.362;6.686;2023-04-27T01:03:58;101578.91;;;5.23;92.90
13068;BME280;6600;51.362;6.686;2023-04-27T01:06:23;101576.41;;;5.21;93.35
13068;BME280;6600;51.362;6.686;2023-04-27T01:08:49;101575.56;;;5.21;93.25
13068;BME280;6600;51.362;6.686;2023-04-27T01:11:14;101567.94;;;5.18;93.45
13068;BME280;6600;51.362;6.686;2023-04-27T01:13:40;101577.06;;;5.15;93.12
13068;BME280;6600;51.362;6.686;2023-04-27T01:16:05;101585.34;;;5.12;94.01
13068;BME280;6600;51.362;6.686;2023-04-27T01:18:31;101591.31;;;5.14;93.86
13068;BME280;6600;51.362;6.686;2023-04-27T01:20:57;101584.38;;;5.13;94.17
13068;BME280;6600;51.362;6.686;2023-04-27T01:23:24;101586.31;;;5.11;93.51
13068;BME280;6600;51.362;6.686;2023-04-27T01:25:50;101592.47;;;5.12;94.07
13068;BME280;6600;51.362;6.686;2023-04-27T01:28:15;101588.31;;;5.09;94.05
13068;BME280;6600;51.362;6.686;2023-04-27T01:30:40;101589.47;;;5.06;94.78
13068;BME280;6600;51.362;6.686;2023-04-27T01:33:06;101593.97;;;5.06;94.29
13068;BME280;6600;51.362;6.686;2023-04-27T01:35:31;101592.59;;;5.02;94.46
13068;BME280;6600;51.362;6.686;2023-04-27T01:37:56;101586.25;;;4.95;94.59
13068;BME280;6600;51.362;6.686;2023-04-27T01:40:22;101582.94;;;4.93;95.19
13068;BME280;6600;51.362;6.686;2023-04-27T01:42:47;101584.06;;;4.90;94.84
13068;BME280;6600;51.362;6.686;2023-04-27T01:45:12;101597.19;;;4.92;95.34
13068;BME280;6600;51.362;6.686;2023-04-27T01:47:37;101585.75;;;4.91;95.57
13068;BME280;6600;51.362;6.686;2023-04-27T01:50:03;101599.59;;;5.03;95.84
13068;BME280;6600;51.362;6.686;2023-04-27T01:52:28;101602.91;;;5.05;96.33
13068;BME280;6600;51.362;6.686;2023-04-27T01:54:54;101608.06;;;5.06;96.41
13068;BME280;6600;51.362;6.686;2023-04-27T01:57:19;101603.44;;;5.08;96.08
13068;BME280;6600;51.362;6.686;2023-04-27T01:59:45;101604.59;;;5.06;95.86
13068;BME280;6600;51.362;6.686;2023-04-27T02:02:10;101610.25;;;5.11;96.14
13068;BME280;6600;51.362;6.686;2023-04-27T02:04:35;101603.09;;;5.12;96.13
13068;BME280;6600;51.362;6.686;2023-04-27T02:07:01;101604.59;;;5.14;96.30
13068;BME280;6600;51.362;6.686;2023-04-27T02:09:27;101612.28;;;5.17;95.50
13068;BME280;6600;51.362;6.686;2023-04-27T02:11:52;101610.25;;;5.11;96.21
13068;BME280;6600;51.362;6.686;2023-04-27T02:14:17;101612.56;;;5.14;96.42
13068;BME280;6600;51.362;6.686;2023-04-27T02:16:43;101608.94;;;5.15;95.63
13068;BME280;6600;51.362;6.686;2023-04-27T02:19:08;101596.13;;;5.10;95.81
13068;BME280;6600;51.362;6.686;2023-04-27T02:21:33;101604.25;;;5.09;96.20
13068;BME280;6600;51.362;6.686;2023-04-27T02:23:58;101598.94;;;5.09;95.70
13068;BME280;6600;51.362;6.686;2023-04-27T02:26:25;101600.91;;;5.07;96.27
13068;BME280;6600;51.362;6.686;2023-04-27T02:28:54;101598.94;;;5.09;95.73
13068;BME280;6600;51.362;6.686;2023-04-27T02:31:21;101590.81;;;5.10;96.05
13068;BME280;6600;51.362;6.686;2023-04-27T02:33:46;101586.00;;;5.14;95.48
13068;BME280;6600;51.362;6.686;2023-04-27T02:36:12;101600.13;;;5.15;95.00
13068;BME280;6600;51.362;6.686;2023-04-27T02:38:37;101599.28;;;5.14;95.20
13068;BME280;6600;51.362;6.686;2023-04-27T02:41:02;101595.84;;;5.14;95.11
13068;BME280;6600;51.362;6.686;2023-04-27T02:43:28;101601.56;;;5.01;95.94
13068;BME280;6600;51.362;6.686;2023-04-27T02:45:53;101596.25;;;5.01;95.66
13068;BME280;6600;51.362;6.686;2023-04-27T02:48:18;101606.88;;;5.01;96.03
13068;BME280;6600;51.362;6.686;2023-04-27T02:50:44;101590.59;;;5.04;95.74
13068;BME280;6600;51.362;6.686;2023-04-27T02:53:11;101599.78;;;5.09;95.73
13068;BME280;6600;51.362;6.686;2023-04-27T02:55:37;101593.31;;;5.12;95.44
13068;BME280;6600;51.362;6.686;2023-04-27T02:58:02;101585.19;;;5.14;95.22
13068;BME280;6600;51.362;6.686;2023-04-27T03:00:28;101581.97;;;5.02;95.06
13068;BME280;6600;51.362;6.686;2023-04-27T03:02:54;101577.69;;;5.09;94.75
13068;BME280;6600;51.362;6.686;2023-04-27T03:05:20;101575.72;;;5.11;94.58
13068;BME280;6600;51.362;6.686;2023-04-27T03:07:45;101571.22;;;5.12;94.73
13068;BME280;6600;51.362;6.686;2023-04-27T03:10:10;101573.09;;;5.19;95.30
13068;BME280;6600;51.362;6.686;2023-04-27T03:12:36;101570.06;;;5.14;94.95
13068;BME280;6600;51.362;6.686;2023-04-27T03:15:01;101576.41;;;5.21;94.69
13068;BME280;6600;51.362;6.686;2023-04-27T03:17:28;101576.09;;;5.24;94.75
13068;BME280;6600;51.362;6.686;2023-04-27T03:19:53;101580.59;;;5.24;93.94
13068;BME280;6600;51.362;6.686;2023-04-27T03:22:19;101579.75;;;5.23;94.02
13068;BME280;6600;51.362;6.686;2023-04-27T03:24:44;101578.91;;;5.23;94.55
13068;BME280;6600;51.362;6.686;2023-04-27T03:27:10;101583.72;;;5.19;94.41
13068;BME280;6600;51.362;6.686;2023-04-27T03:29:36;101580.75;;;5.22;94.42
13068;BME280;6600;51.362;6.686;2023-04-27T03:32:02;101579.25;;;5.20;94.95
13068;BME280;6600;51.362;6.686;2023-04-27T03:34:28;101584.03;;;5.16;95.21
13068;BME280;6600;51.362;6.686;2023-04-27T03:36:53;101585.34;;;5.12;94.61
13068;BME280;6600;51.362;6.686;2023-04-27T03:39:19;101583.34;;;5.14;94.39
13068;BME280;6600;51.362;6.686;2023-04-27T03:41:44;101584.00;;;5.08;94.88
13068;BME280;6600;51.362;6.686;2023-04-27T03:44:09;101579.53;;;5.08;94.68
13068;BME280;6600;51.362;6.686;2023-04-27T03:46:35;101578.38;;;5.11;94.83
13068;BME280;6600;51.362;6.686;2023-04-27T03:49:00;101583.00;;;5.09;94.53
13068;BME280;6600;51.362;6.686;2023-04-27T03:51:25;101581.03;;;5.11;94.83
13068;BME280;6600;51.362;6.686;2023-04-27T03:53:51;101578.22;;;5.13;94.63
13068;BME280;6600;51.362;6.686;2023-04-27T03:56:16;101582.03;;;5.18;94.66
13068;BME280;6600;51.362;6.686;2023-04-27T03:58:41;101592.72;;;5.26;94.19
13068;BME280;6600;51.362;6.686;2023-04-27T04:01:07;101590.06;;;5.26;93.21
13068;BME280;6600;51.362;6.686;2023-04-27T04:03:34;101597.53;;;5.23;93.80
13068;BME280;6600;51.362;6.686;2023-04-27T04:06:00;101597.06;;;5.27;93.81
13068;BME280;6600;51.362;6.686;2023-04-27T04:08:27;101608.34;;;5.29;93.54
13068;BME280;6600;51.362;6.686;2023-04-27T04:10:53;101608.19;;;5.31;93.02
13068;BME280;6600;51.362;6.686;2023-04-27T04:13:18;101603.06;;;5.37;92.70
13068;BME280;6600;51.362;6.686;2023-04-27T04:15:43;101606.25;;;5.41;92.14
13068;BME280;6600;51.362;6.686;2023-04-27T04:18:09;101598.28;;;5.41;92.49
13068;BME280;6600;51.362;6.686;2023-04-27T04:20:34;101606.75;;;5.52;92.10
13068;BME280;6600;51.362;6.686;2023-04-27T04:23:00;101612.59;;;5.56;91.01
13068;BME280;6600;51.362;6.686;2023-04-27T04:25:25;101609.13;;;5.64;91.06
13068;BME280;6600;51.362;6.686;2023-04-27T04:27:52;101607.47;;;5.63;90.79
13068;BME280;6600;51.362;6.686;2023-04-27T04:30:17;101611.44;;;5.58;90.91
13068;BME280;6600;51.362;6.686;2023-04-27T04:32:43;101616.63;;;5.68;90.97
13068;BME280;6600;51.362;6.686;2023-04-27T04:35:09;101614.50;;;5.80;91.71
13068;BME280;6600;51.362;6.686;2023-04-27T04:37:35;101617.34;;;5.86;92.05
13068;BME280;6600;51.362;6.686;2023-04-27T04:40:03;101615.91;;;5.92;92.23
13068;BME280;6600;51.362;6.686;2023-04-27T04:42:33;101622.38;;;5.97;91.62
13068;BME280;6600;51.362;6.686;2023-04-27T04:44:58;101618.38;;;5.93;91.05
13068;BME280;6600;51.362;6.686;2023-04-27T04:47:24;101618.06;;;6.04;90.82
13068;BME280;6600;51.362;6.686;2023-04-27T04:49:49;101622.09;;;6.33;91.12
13068;BME280;6600;51.362;6.686;2023-04-27T04:52:14;101625.25;;;6.60;89.94
13068;BME280;6600;51.362;6.686;2023-04-27T04:54:40;101617.59;;;6.74;88.68
13068;BME280;6600;51.362;6.686;2023-04-27T04:57:05;101622.06;;;6.81;87.07
13068;BME280;6600;51.362;6.686;2023-04-27T04:59:32;101614.56;;;6.77;86.71
13068;BME280;6600;51.362;6.686;2023-04-27T05:01:58;101623.41;;;6.69;86.70
13068;BME280;6600;51.362;6.686;2023-04-27T05:04:23;101636.53;;;6.87;87.08
13068;BME280;6600;51.362;6.686;2023-04-27T05:06:49;101635.72;;;6.78;86.68
13068;BME280;6600;51.362;6.686;2023-04-27T05:09:14;101633.56;;;6.82;87.05
13068;BME280;6600;51.362;6.686;2023-04-27T05:11:39;101635.88;;;6.85;87.29
13068;BME280;6600;51.362;6.686;2023-04-27T05:14:05;101638.81;;;7.14;87.33
13068;BME280;6600;51.362;6.686;2023-04-27T05:16:30;101648.75;;;7.36;86.29
13068;BME280;6600;51.362;6.686;2023-04-27T05:18:55;101651.41;;;7.44;85.01
13068;BME280;6600;51.362;6.686;2023-04-27T05:21:21;101645.38;;;7.50;84.87
13068;BME280;6600;51.362;6.686;2023-04-27T05:23:46;101654.78;;;7.69;84.35
13068;BME280;6600;51.362;6.686;2023-04-27T05:26:13;101648.28;;;7.72;84.01
13068;BME280;6600;51.362;6.686;2023-04-27T05:28:38;101657.53;;;7.84;83.65
13068;BME280;6600;51.362;6.686;2023-04-27T05:31:03;101660.88;;;7.86;82.51
13068;BME280;6600;51.362;6.686;2023-04-27T05:33:29;101656.03;;;7.89;82.57
13068;BME280;6600;51.362;6.686;2023-04-27T05:35:54;101656.06;;;8.12;82.94
13068;BME280;6600;51.362;6.686;2023-04-27T05:38:19;101665.41;;;8.08;81.27
13068;BME280;6600;51.362;6.686;2023-04-27T05:40:45;101658.81;;;8.27;81.84
13068;BME280;6600;51.362;6.686;2023-04-27T05:43:10;101670.94;;;8.37;80.83
13068;BME280;6600;51.362;6.686;2023-04-27T05:45:39;101667.84;;;8.48;78.86
13068;BME280;6600;51.362;6.686;2023-04-27T05:48:05;101664.84;;;8.51;79.07
13068;BME280;6600;51.362;6.686;2023-04-27T05:50:30;101660.13;;;8.53;78.84
13068;BME280;6600;51.362;6.686;2023-04-27T05:52:55;101665.63;;;8.75;78.63
13068;BME280;6600;51.362;6.686;2023-04-27T05:55:21;101669.03;;;8.69;77.87
13068;BME280;6600;51.362;6.686;2023-04-27T05:57:46;101661.03;;;8.69;78.01
13068;BME280;6600;51.362;6.686;2023-04-27T06:00:12;101674.06;;;8.63;77.37
13068;BME280;6600;51.362;6.686;2023-04-27T06:02:39;101674.22;;;8.85;76.67
13068;BME280;6600;51.362;6.686;2023-04-27T06:05:05;101683.63;;;8.81;76.59
13068;BME280;6600;51.362;6.686;2023-04-27T06:07:31;101688.06;;;8.88;76.43
13068;BME280;6600;51.362;6.686;2023-04-27T06:09:56;101682.09;;;9.01;75.71
13068;BME280;6600;51.362;6.686;2023-04-27T06:12:21;101675.00;;;9.08;75.92
13068;BME280;6600;51.362;6.686;2023-04-27T06:14:47;101668.50;;;8.88;75.33
13068;BME280;6600;51.362;6.686;2023-04-27T06:17:12;101675.53;;;8.89;75.97
13068;BME280;6600;51.362;6.686;2023-04-27T06:19:37;101680.78;;;8.82;75.09
13068;BME280;6600;51.362;6.686;2023-04-27T06:22:03;101678.63;;;8.78;75.48
13068;BME280;6600;51.362;6.686;2023-04-27T06:24:28;101678.06;;;8.68;75.27
13068;BME280;6600;51.362;6.686;2023-04-27T06:26:53;101675.91;;;8.86;75.27
13068;BME280;6600;51.362;6.686;2023-04-27T06:29:18;101674.97;;;8.93;74.84
13068;BME280;6600;51.362;6.686;2023-04-27T06:31:44;101681.19;;;9.08;74.74
13068;BME280;6600;51.362;6.686;2023-04-27T06:34:09;101666.53;;;9.19;74.11
13068;BME280;6600;51.362;6.686;2023-04-27T06:36:35;101674.00;;;9.38;74.71
13068;BME280;6600;51.362;6.686;2023-04-27T06:39:00;101667.81;;;9.52;73.72
13068;BME280;6600;51.362;6.686;2023-04-27T06:41:26;101670.25;;;9.47;72.62
13068;BME280;6600;51.362;6.686;2023-04-27T06:43:52;101676.88;;;9.51;72.18
13068;BME280;6600;51.362;6.686;2023-04-27T06:46:18;101675.59;;;9.47;71.49
13068;BME280;6600;51.362;6.686;2023-04-27T06:48:43;101679.53;;;9.66;71.79
13068;BME280;6600;51.362;6.686;2023-04-27T06:51:09;101673.63;;;9.56;71.30
13068;BME280;6600;51.362;6.686;2023-04-27T06:53:34;101665.75;;;9.84;72.19
13068;BME280;6600;51.362;6.686;2023-04-27T06:56:00;101663.19;;;9.76;71.18
13068;BME280;6600;51.362;6.686;2023-04-27T06:58:25;101681.13;;;9.96;71.40
13068;BME280;6600;51.362;6.686;2023-04-27T07:00:51;101680.22;;;10.19;71.49
13068;BME280;6600;51.362;6.686;2023-04-27T07:03:17;101671.75;;;10.36;70.90
13068;BME280;6600;51.362;6.686;2023-04-27T07:05:42;101675.25;;;10.58;70.79
13068;BME280;6600;51.362;6.686;2023-04-27T07:08:08;101667.78;;;10.53;68.80
13068;BME280;6600;51.362;6.686;2023-04-27T07:10:33;101668.28;;;10.42;70.17
13068;BME280;6600;51.362;6.686;2023-04-27T07:12:58;101673.03;;;10.40;69.50
13068;BME280;6600;51.362;6.686;2023-04-27T07:15:24;101668.28;;;10.42;68.30
13068;BME280;6600;51.362;6.686;2023-04-27T07:17:50;101665.34;;;10.58;67.64
13068;BME280;6600;51.362;6.686;2023-04-27T07:20:18;101665.09;;;10.75;68.25
13068;BME280;6600;51.362;6.686;2023-04-27T07:22:43;101670.00;;;10.71;67.47
13068;BME280;6600;51.362;6.686;2023-04-27T07:25:08;101662.53;;;10.67;67.75
13068;BME280;6600;51.362;6.686;2023-04-27T07:27:34;101671.25;;;10.69;66.18
13068;BME280;6600;51.362;6.686;2023-04-27T07:30:00;101662.03;;;10.78;66.85
13068;BME280;6600;51.362;6.686;2023-04-27T07:32:25;101670.06;;;10.78;65.26
13068;BME280;6600;51.362;6.686;2023-04-27T07:34:53;101679.13;;;10.77;66.54
13068;BME280;6600;51.362;6.686;2023-04-27T07:37:18;101673.75;;;10.77;65.66
13068;BME280;6600;51.362;6.686;2023-04-27T07:39:44;101671.41;;;10.88;66.10
13068;BME280;6600;51.362;6.686;2023-04-27T07:42:11;101679.84;;;11.13;67.80
13068;BME280;6600;51.362;6.686;2023-04-27T07:44:36;101679.19;;;11.11;65.78
13068;BME280;6600;51.362;6.686;2023-04-27T07:47:01;101682.34;;;11.21;65.90
13068;BME280;6600;51.362;6.686;2023-04-27T07:49:27;101677.78;;;11.15;64.83
13068;BME280;6600;51.362;6.686;2023-04-27T07:51:53;101677.69;;;11.02;63.60
13068;BME280;6600;51.362;6.686;2023-04-27T07:54:18;101675.41;;;10.99;63.45
13068;BME280;6600;51.362;6.686;2023-04-27T07:56:44;101685.91;;;11.00;64.23
13068;BME280;6600;51.362;6.686;2023-04-27T07:59:09;101662.47;;;11.09;64.23
13068;BME280;6600;51.362;6.686;2023-04-27T08:01:35;101676.41;;;10.98;63.44
13068;BME280;6600;51.362;6.686;2023-04-27T08:04:00;101669.78;;;10.94;63.97
13068;BME280;6600;51.362;6.686;2023-04-27T08:06:26;101670.69;;;11.07;64.40
13068;BME280;6600;51.362;6.686;2023-04-27T08:08:52;101662.47;;;11.09;62.33
13068;BME280;6600;51.362;6.686;2023-04-27T08:11:20;101655.06;;;11.11;63.81
13068;BME280;6600;51.362;6.686;2023-04-27T08:13:45;101658.78;;;11.10;62.37
13068;BME280;6600;51.362;6.686;2023-04-27T08:16:10;101665.09;;;11.30;62.72
13068;BME280;6600;51.362;6.686;2023-04-27T08:18:36;101659.38;;;11.40;61.26
13068;BME280;6600;51.362;6.686;2023-04-27T08:21:01;101655.59;;;11.34;61.97
13068;BME280;6600;51.362;6.686;2023-04-27T08:23:28;101654.00;;;11.40;62.79
13068;BME280;6600;51.362;6.686;2023-04-27T08:25:53;101646.22;;;11.51;62.28
13068;BME280;6600;51.362;6.686;2023-04-27T08:28:18;101637.13;;;11.52;62.37
13068;BME280;6600;51.362;6.686;2023-04-27T08:30:44;101642.09;;;11.55;60.33
13068;BME280;6600;51.362;6.686;2023-04-27T08:33:09;101629.78;;;11.68;61.17
13068;BME280;6600;51.362;6.686;2023-04-27T08:35:35;101635.84;;;11.83;61.29
13068;BME280;6600;51.362;6.686;2023-04-27T08:38:00;101636.56;;;12.18;61.25
13068;BME280;6600;51.362;6.686;2023-04-27T08:40:26;101641.16;;;12.37;61.31
13068;BME280;6600;51.362;6.686;2023-04-27T08:42:56;101646.31;;;12.38;60.46
13068;BME280;6600;51.362;6.686;2023-04-27T08:45:23;101638.28;;;12.51;58.96
13068;BME280;6600;51.362;6.686;2023-04-27T08:47:49;101644.47;;;12.45;56.50
13068;BME280;6600;51.362;6.686;2023-04-27T08:50:14;101644.47;;;12.45;56.41
13068;BME280;6600;51.362;6.686;2023-04-27T08:52:43;101633.31;;;12.68;58.97
13068;BME280;6600;51.362;6.686;2023-04-27T08:55:09;101643.66;;;12.64;57.86
13068;BME280;6600;51.362;6.686;2023-04-27T08:57:34;101646.97;;;12.66;56.46
13068;BME280;6600;51.362;6.686;2023-04-27T08:59:59;101645.09;;;12.74;55.73
13068;BME280;6600;51.362;6.686;2023-04-27T09:02:25;101639.94;;;12.92;56.00
13068;BME280;6600;51.362;6.686;2023-04-27T09:04:54;101634.94;;;13.08;55.67
13068;BME280;6600;51.362;6.686;2023-04-27T09:07:20;101630.00;;;12.99;56.59
13068;BME280;6600;51.362;6.686;2023-04-27T09:09:45;101622.13;;;13.24;55.24
13068;BME280;6600;51.362;6.686;2023-04-27T09:12:17;101618.34;;;13.31;54.84
13068;BME280;6600;51.362;6.686;2023-04-27T09:14:43;101624.59;;;13.25;54.18
13068;BME280;6600;51.362;6.686;2023-04-27T09:17:08;101635.28;;;13.58;56.73
13068;BME280;6600;51.362;6.686;2023-04-27T09:19:34;101621.25;;;13.36;54.71
13068;BME280;6600;51.362;6.686;2023-04-27T09:22:04;101626.59;;;13.49;55.42
13068;BME280;6600;51.362;6.686;2023-04-27T09:24:29;101617.47;;;13.50;54.14
13068;BME280;6600;51.362;6.686;2023-04-27T09:26:55;101620.69;;;13.79;54.64
13068;BME280;6600;51.362;6.686;2023-04-27T09:29:31;101620.53;;;14.05;54.56
13068;BME280;6600;51.362;6.686;2023-04-27T09:31:56;101615.13;;;14.05;51.57
13068;BME280;6600;51.362;6.686;2023-04-27T09:34:21;101618.06;;;13.97;51.56
13068;BME280;6600;51.362;6.686;2023-04-27T09:36:47;101612.88;;;14.02;53.11
13068;BME280;6600;51.362;6.686;2023-04-27T09:39:14;101613.66;;;14.09;54.23
13068;BME280;6600;51.362;6.686;2023-04-27T09:41:40;101617.06;;;14.29;52.02
13068;BME280;6600;51.362;6.686;2023-04-27T09:44:06;101617.50;;;14.26;48.81
13068;BME280;6600;51.362;6.686;2023-04-27T09:46:32;101619.56;;;14.24;51.61
13068;BME280;6600;51.362;6.686;2023-04-27T09:49:00;101617.63;;;14.44;49.08
13068;BME280;6600;51.362;6.686;2023-04-27T09:51:28;101614.69;;;14.08;47.35
13068;BME280;6600;51.362;6.686;2023-04-27T09:53:57;101601.81;;;14.16;51.38
13068;BME280;6600;51.362;6.686;2023-04-27T09:56:43;101598.78;;;14.31;51.49
13068;BME280;6600;51.362;6.686;2023-04-27T10:02:01;101607.94;;;13.99;52.35
13068;BME280;6600;51.362;6.686;2023-04-27T10:04:58;101609.75;;;14.05;51.19
13068;BME280;6600;51.362;6.686;2023-04-27T10:07:27;101602.25;;;14.07;51.79
13068;BME280;6600;51.362;6.686;2023-04-27T10:09:53;101589.41;;;14.09;51.42
13068;BME280;6600;51.362;6.686;2023-04-27T10:12:21;101594.97;;;14.14;51.12
13068;BME280;6600;51.362;6.686;2023-04-27T10:17:16;101587.06;;;13.88;50.42
13068;BME280;6600;51.362;6.686;2023-04-27T10:19:52;101582.31;;;13.39;50.10
13068;BME280;6600;51.362;6.686;2023-04-27T10:22:19;101588.44;;;13.59;50.34
13068;BME280;6600;51.362;6.686;2023-04-27T10:24:48;101584.88;;;13.72;52.83
13068;BME280;6600;51.362;6.686;2023-04-27T10:27:16;101568.28;;;14.06;51.23
13068;BME280;6600;51.362;6.686;2023-04-27T10:29:47;101568.97;;;14.26;51.25
13068;BME280;6600;51.362;6.686;2023-04-27T10:32:25;101578.09;;;14.25;49.51
13068;BME280;6600;51.362;6.686;2023-04-27T10:35:00;101571.47;;;14.21;49.88
13068;BME280;6600;51.362;6.686;2023-04-27T10:37:37;101574.69;;;13.74;50.77
13068;BME280;6600;51.362;6.686;2023-04-27T10:40:09;101568.34;;;13.93;50.71
13068;BME280;6600;51.362;6.686;2023-04-27T10:42:39;101562.69;;;13.70;50.36
13068;BME280;6600;51.362;6.686;2023-04-27T10:45:05;101566.78;;;13.85;51.13
13068;BME280;6600;51.362;6.686;2023-04-27T10:47:39;101568.28;;;14.06;49.66
13068;BME280;6600;51.362;6.686;2023-04-27T10:50:12;101563.34;;;14.03;51.42
13068;BME280;6600;51.362;6.686;2023-04-27T10:52:41;101554.91;;;14.17;50.89
13068;BME280;6600;51.362;6.686;2023-04-27T10:55:22;101565.25;;;14.27;49.31
13068;BME280;6600;51.362;6.686;2023-04-27T10:57:52;101570.09;;;13.81;50.39
13068;BME280;6600;51.362;6.686;2023-04-27T11:00:41;101567.81;;;13.84;49.67
13068;BME280;6600;51.362;6.686;2023-04-27T11:03:11;101557.16;;;13.96;50.81
13068;BME280;6600;51.362;6.686;2023-04-27T11:05:37;101561.44;;;14.03;49.72
13068;BME280;6600;51.362;6.686;2023-04-27T11:08:04;101554.97;;;13.80;47.81
13068;BME280;6600;51.362;6.686;2023-04-27T11:10:29;101561.47;;;13.65;49.74
13068;BME280;6600;51.362;6.686;2023-04-27T11:12:55;101560.66;;;13.65;49.90
13068;BME280;6600;51.362;6.686;2023-04-27T11:15:21;101556.97;;;13.91;48.18
13068;BME280;6600;51.362;6.686;2023-04-27T11:17:46;101566.44;;;14.00;46.31
13068;BME280;6600;51.362;6.686;2023-04-27T11:20:11;101560.88;;;14.26;47.33
13068;BME280;6600;51.362;6.686;2023-04-27T11:22:45;101555.50;;;14.26;48.50
13068;BME280;6600;51.362;6.686;2023-04-27T11:25:11;101554.44;;;14.34;49.30
13068;BME280;6600;51.362;6.686;2023-04-27T11:27:37;101545.78;;;14.75;49.92
13068;BME280;6600;51.362;6.686;2023-04-27T11:30:04;101549.50;;;14.74;48.57
13068;BME280;6600;51.362;6.686;2023-04-27T11:32:29;101544.25;;;14.60;45.94
13068;BME280;6600;51.362;6.686;2023-04-27T11:34:55;101546.22;;;14.72;47.46
13068;BME280;6600;51.362;6.686;2023-04-27T11:37:22;101547.22;;;14.95;47.97
13068;BME280;6600;51.362;6.686;2023-04-27T11:39:51;101541.88;;;15.25;48.45
13068;BME280;6600;51.362;6.686;2023-04-27T11:42:22;101530.81;;;15.45;47.30
13068;BME280;6600;51.362;6.686;2023-04-27T11:45:02;101539.59;;;15.58;48.95
13068;BME280;6600;51.362;6.686;2023-04-27T11:47:31;101535.44;;;15.44;44.21
13068;BME280;6600;51.362;6.686;2023-04-27T11:49:59;101526.34;;;15.57;45.58
13068;BME280;6600;51.362;6.686;2023-04-27T11:52:32;101525.66;;;15.43;45.10
13068;BME280;6600;51.362;6.686;2023-04-27T11:54:59;101522.69;;;15.33;44.92
13068;BME280;6600;51.362;6.686;2023-04-27T11:57:26;101528.09;;;15.33;45.18
13068;BME280;6600;51.362;6.686;2023-04-27T11:59:52;101521.06;;;14.96;45.60
13068;BME280;6600;51.362;6.686;2023-04-27T12:02:18;101513.31;;;14.38;46.21
13068;BME280;6600;51.362;6.686;2023-04-27T12:04:44;101512.78;;;14.54;46.82
13068;BME280;6600;51.362;6.686;2023-04-27T12:07:09;101506.78;;;14.71;46.78
13068;BME280;6600;51.362;6.686;2023-04-27T12:09:36;101507.69;;;14.83;46.26
13068;BME280;6600;51.362;6.686;2023-04-27T12:12:01;101508.00;;;15.11;45.62
13068;BME280;6600;51.362;6.686;2023-04-27T12:14:27;101502.13;;;15.32;45.55
13068;BME280;6600;51.362;6.686;2023-04-27T12:16:52;101496.34;;;15.77;48.33
13068;BME280;6600;51.362;6.686;2023-04-27T12:19:17;101495.44;;;15.53;45.58
13068;BME280;6600;51.362;6.686;2023-04-27T12:21:43;101502.13;;;15.50;46.06
13068;BME280;6600;51.362;6.686;2023-04-27T12:24:08;101497.16;;;15.47;46.02
13068;BME280;6600;51.362;6.686;2023-04-27T12:26:33;101497.91;;;15.54;44.50
13068;BME280;6600;51.362;6.686;2023-04-27T12:28:59;101498.38;;;15.51;44.54
13068;BME280;6600;51.362;6.686;2023-04-27T12:31:25;101492.13;;;15.81;47.33
13068;BME280;6600;51.362;6.686;2023-04-27T12:33:50;101495.25;;;16.19;47.21
13068;BME280;6600;51.362;6.686;2023-04-27T12:36:16;101486.56;;;16.40;46.67
13068;BME280;6600;51.362;6.686;2023-04-27T12:38:42;101487.28;;;16.47;44.66
13068;BME280;6600;51.362;6.686;2023-04-27T12:41:07;101482.56;;;16.78;44.16
13068;BME280;6600;51.362;6.686;2023-04-27T12:43:32;101499.13;;;16.93;43.37
13068;BME280;6600;51.362;6.686;2023-04-27T12:46:00;101489.84;;;16.42;41.33
13068;BME280;6600;51.362;6.686;2023-04-27T12:48:26;101481.75;;;16.31;40.56
13068;BME280;6600;51.362;6.686;2023-04-27T12:50:51;101482.84;;;16.64;42.12
13068;BME280;6600;51.362;6.686;2023-04-27T12:53:16;101485.53;;;16.64;41.29
13068;BME280;6600;51.362;6.686;2023-04-27T12:55:42;101480.09;;;16.41;39.55
13068;BME280;6600;51.362;6.686;2023-04-27T12:58:07;101472.44;;;16.38;41.50
13068;BME280;6600;51.362;6.686;2023-04-27T13:00:33;101474.56;;;16.36;41.62
13068;BME280;6600;51.362;6.686;2023-04-27T13:02:58;101474.56;;;16.36;41.08
13068;BME280;6600;51.362;6.686;2023-04-27T13:05:23;101473.63;;;16.42;40.79
13068;BME280;6600;51.362;6.686;2023-04-27T13:07:49;101481.16;;;16.29;39.75